createdAt,value
2022-11-29T00:04:35.779Z,101426.13
2022-11-29T00:09:37.259Z,101422.16
2022-11-29T00:14:38.758Z,101423.84
2022-11-29T00:19:40.396Z,101420.69
2022-11-29T00:24:43.016Z,101429.25
2022-11-29T00:29:44.685Z,101439.28
2022-11-29T00:34:46.371Z,101439.28
2022-11-29T00:39:48.039Z,101438.72
2022-11-29T00:44:49.558Z,101434.81
2022-11-29T00:49:51.070Z,101439.53
2022-11-29T00:54:52.512Z,101448.66
2022-11-29T00:59:53.961Z,101455.94
2022-11-29T01:04:56.561Z,101454.53
2022-11-29T01:09:58.030Z,101454.78
2022-11-29T01:14:59.512Z,101459.47
2022-11-29T01:20:00.967Z,101456.03
2022-11-29T01:25:02.678Z,101465.19
2022-11-29T01:30:05.988Z,101467.16
2022-11-29T01:35:07.800Z,101464.59
2022-11-29T01:40:09.564Z,101470.16
2022-11-29T01:45:23.212Z,101470.88
2022-11-29T01:50:25.119Z,101485.47
2022-11-29T01:55:26.714Z,101481.16
2022-11-29T02:00:28.368Z,101488.44
2022-11-29T02:05:30.201Z,101493.31
2022-11-29T02:11:09.863Z,101499.84
2022-11-29T02:16:36.315Z,101502.97
2022-11-29T02:21:52.384Z,101502.09
2022-11-29T02:26:59.460Z,101504.97
2022-11-29T02:32:22.699Z,101507.22
2022-11-29T02:37:45.166Z,101505.91
2022-11-29T02:43:13.046Z,101496.41
2022-11-29T02:48:46.728Z,101515.06
2022-11-29T02:54:02.807Z,101527.56
2022-11-29T02:59:26.208Z,101530.19
2022-11-29T03:04:55.483Z,101537.16
2022-11-29T03:10:14.246Z,101537.91
2022-11-29T03:15:21.511Z,101546.69
2022-11-29T03:20:47.765Z,101556.44
2022-11-29T03:25:57.048Z,101557.94
2022-11-29T03:31:05.412Z,101563.88
2022-11-29T03:36:14.230Z,101558.22
2022-11-29T03:41:32.679Z,101561.66
2022-11-29T03:46:42.403Z,101562.38
2022-11-29T03:52:13.382Z,101575.22
2022-11-29T03:57:20.803Z,101573.72
2022-11-29T04:02:51.450Z,101575.94
2022-11-29T04:08:37.662Z,101580.09
2022-11-29T04:14:36.556Z,101596.13
2022-11-29T04:20:07.308Z,101595.00
2022-11-29T04:25:27.327Z,101592.28
2022-11-29T04:30:42.483Z,101598.50
2022-11-29T04:36:06.563Z,101603.56
2022-11-29T04:41:19.806Z,101601.44
2022-11-29T04:46:36.347Z,101612.09
2022-11-29T04:52:02.650Z,101626.63
2022-11-29T04:57:32.791Z,101618.97
2022-11-29T05:02:36.976Z,101629.41
2022-11-29T05:08:12.797Z,101627.50
2022-11-29T05:13:23.627Z,101653.09
2022-11-29T05:18:54.294Z,101649.31
2022-11-29T05:24:06.815Z,101661.72
2022-11-29T05:29:19.997Z,101660.53
2022-11-29T05:34:52.076Z,101666.63
2022-11-29T05:40:12.421Z,101661.13
2022-11-29T05:45:23.499Z,101670.66
2022-11-29T05:50:36.328Z,101675.31
2022-11-29T05:55:56.239Z,101685.59
2022-11-29T06:01:17.464Z,101675.09
2022-11-29T06:06:40.798Z,101693.25
2022-11-29T06:11:50.077Z,101703.22
2022-11-29T06:17:10.506Z,101705.38
2022-11-29T06:22:27.135Z,101699.56
2022-11-29T06:27:54.100Z,101702.69
2022-11-29T06:33:22.488Z,101710.69
2022-11-29T06:38:28.491Z,101715.97
2022-11-29T06:43:31.170Z,101719.66
2022-11-29T06:48:45.610Z,101737.16
2022-11-29T06:53:53.960Z,101730.97
2022-11-29T06:59:00.857Z,101743.75
2022-11-29T07:04:24.148Z,101759.09
2022-11-29T07:09:30.461Z,101753.69
2022-11-29T07:14:32.106Z,101754.56
2022-11-29T07:19:53.711Z,101759.09
2022-11-29T07:25:30.126Z,101764.81
2022-11-29T07:30:47.015Z,101774.00
2022-11-29T07:36:11.985Z,101781.22
2022-11-29T07:41:20.743Z,101787.81
2022-11-29T07:46:22.293Z,101795.84
2022-11-29T07:51:23.770Z,101802.78
2022-11-29T07:56:25.266Z,101810.44
2022-11-29T08:01:26.830Z,101804.63
2022-11-29T08:06:28.403Z,101816.53
2022-11-29T08:11:29.869Z,101816.00
2022-11-29T08:16:32.008Z,101825.41
2022-11-29T08:21:33.529Z,101819.69
2022-11-29T08:26:35.007Z,101827.16
2022-11-29T08:31:38.061Z,101838.66
2022-11-29T08:36:39.581Z,101847.31
2022-11-29T08:41:41.096Z,101850.78
2022-11-29T08:47:01.083Z,101857.13
2022-11-29T08:52:21.018Z,101859.00
2022-11-29T09:02:44.471Z,101867.19
2022-11-29T09:07:46.930Z,101870.22
2022-11-29T09:12:50.556Z,101868.47
2022-11-29T09:17:52.047Z,101871.38
2022-11-29T09:22:53.584Z,101876.56
2022-11-29T09:27:58.565Z,101879.81
2022-11-29T09:33:02.795Z,101888.13
2022-11-29T09:38:04.388Z,101880.19
2022-11-29T09:43:11.095Z,101897.22
2022-11-29T09:48:32.177Z,101908.91
2022-11-29T09:54:05.729Z,101911.59
2022-11-29T09:59:28.922Z,101913.84
2022-11-29T10:04:36.331Z,101903.88
2022-11-29T10:09:47.054Z,101913.47
2022-11-29T10:15:02.124Z,101904.78
2022-11-29T10:20:12.842Z,101904.06
2022-11-29T10:25:24.160Z,101905.56
2022-11-29T10:30:25.805Z,101903.22
2022-11-29T10:35:29.376Z,101917.44
2022-11-29T10:40:35.155Z,101909.53
2022-11-29T10:45:50.638Z,101915.34
2022-11-29T10:50:53.216Z,101921.53
2022-11-29T10:56:24.154Z,101927.56
2022-11-29T11:01:28.875Z,101927.81
2022-11-29T11:06:51.396Z,101926.06
2022-11-29T11:11:55.713Z,101930.00
2022-11-29T11:17:22.383Z,101915.66
2022-11-29T11:22:26.102Z,101921.78
2022-11-29T11:27:30.625Z,101919.75
2022-11-29T11:32:32.105Z,101927.63
2022-11-29T11:37:35.754Z,101926.84
2022-11-29T11:42:40.987Z,101934.97
2022-11-29T11:47:44.941Z,101930.22
2022-11-29T11:52:53.845Z,101931.91
2022-11-29T11:58:07.698Z,101930.34
2022-11-29T12:03:34.362Z,101932.53
2022-11-29T12:08:36.769Z,101936.94
2022-11-29T12:13:44.698Z,101944.28
2022-11-29T12:18:52.452Z,101942.78
2022-11-29T12:23:53.875Z,101949.06
2022-11-29T12:28:55.441Z,101956.13
2022-11-29T12:34:23.047Z,101956.28
2022-11-29T12:39:40.336Z,101966.00
2022-11-29T12:45:02.806Z,101970.75
2022-11-29T12:50:22.735Z,101972.47
2022-11-29T12:55:37.676Z,101972.19
2022-11-29T13:00:51.485Z,101977.22
2022-11-29T13:06:21.216Z,101974.13
2022-11-29T13:11:30.400Z,101984.19
2022-11-29T13:16:42.541Z,101976.56
2022-11-29T13:22:15.199Z,101978.38
2022-11-29T13:27:24.962Z,101982.97
2022-11-29T13:32:33.119Z,101981.66
2022-11-29T13:37:37.138Z,101990.41
2022-11-29T13:42:45.293Z,101984.09
2022-11-29T13:47:59.208Z,102001.84
2022-11-29T13:53:13.096Z,101993.34
2022-11-29T13:58:17.825Z,102007.63
2022-11-29T14:03:28.618Z,101998.28
2022-11-29T14:09:20.385Z,102006.44
2022-11-29T14:14:32.447Z,102008.69
2022-11-29T14:19:36.447Z,102006.09
2022-11-29T14:24:39.879Z,102009.09
2022-11-29T14:29:47.305Z,102010.81
2022-11-29T14:34:57.406Z,102015.41
2022-11-29T14:40:04.230Z,102013.78
2022-11-29T14:45:23.024Z,102022.72
2022-11-29T14:50:39.799Z,102026.44
2022-11-29T14:55:43.009Z,102020.09
2022-11-29T15:00:47.272Z,102034.47
2022-11-29T15:06:06.179Z,102031.63
2022-11-29T15:11:31.809Z,102037.19
2022-11-29T15:16:35.914Z,102041.41
2022-11-29T15:22:06.433Z,102040.94
2022-11-29T15:27:12.781Z,102040.06
2022-11-29T15:32:32.938Z,102043.75
2022-11-29T15:37:34.368Z,102042.03
2022-11-29T15:43:06.407Z,102044.03
2022-11-29T15:48:13.756Z,102043.56
2022-11-29T15:53:20.282Z,102042.72
2022-11-29T15:58:22.037Z,102045.28
2022-11-29T16:03:30.083Z,102050.59
2022-11-29T16:08:36.779Z,102050.22
2022-11-29T16:13:40.531Z,102060.03
2022-11-29T16:18:44.440Z,102058.28
2022-11-29T16:23:46.699Z,102059.44
2022-11-29T16:28:51.013Z,102062.53
2022-11-29T16:33:52.715Z,102058.44
2022-11-29T16:39:04.368Z,102059.59
2022-11-29T16:44:26.639Z,102061.59
2022-11-29T16:49:36.275Z,102072.13
2022-11-29T16:54:37.779Z,102067.81
2022-11-29T16:59:39.225Z,102068.03
2022-11-29T17:04:40.800Z,102060.22
2022-11-29T17:09:42.693Z,102063.94
2022-11-29T17:14:44.407Z,102077.56
2022-11-29T17:19:46.905Z,102075.06
2022-11-29T17:24:48.728Z,102076.31
2022-11-29T17:29:50.353Z,102080.91
2022-11-29T17:34:51.932Z,102097.13
2022-11-29T17:39:53.450Z,102093.50
2022-11-29T17:44:54.929Z,102105.28
2022-11-29T17:49:57.124Z,102105.28
2022-11-29T17:54:58.618Z,102114.81
2022-11-29T18:00:00.046Z,102115.94
2022-11-29T18:05:01.560Z,102119.16
2022-11-29T18:10:03.031Z,102131.78
2022-11-29T18:15:04.840Z,102126.44
2022-11-29T18:20:07.107Z,102140.03
2022-11-29T18:25:36.983Z,102138.22
2022-11-29T18:30:30.411Z,102140.03
2022-11-29T18:35:31.986Z,102146.63
2022-11-29T18:40:33.531Z,102148.72
2022-11-29T18:45:36.947Z,102158.03
2022-11-29T18:50:38.499Z,102155.63
2022-11-29T18:55:39.969Z,102163.91
2022-11-29T19:00:41.861Z,102173.34
2022-11-29T19:05:51.303Z,102181.75
2022-11-29T19:10:52.806Z,102177.41
2022-11-29T19:15:54.996Z,102187.69
2022-11-29T19:21:10.720Z,102193.72
2022-11-29T19:26:14.707Z,102206.22
2022-11-29T19:31:18.205Z,102207.19
2022-11-29T19:36:43.073Z,102198.19
2022-11-29T19:41:47.628Z,102211.41
2022-11-29T19:46:49.075Z,102211.19
2022-11-29T19:51:50.608Z,102196.31
2022-11-29T19:56:52.134Z,102215.28
2022-11-29T20:01:53.638Z,102209.81
2022-11-29T20:06:55.284Z,102218.72
2022-11-29T20:11:57.885Z,102218.44
2022-11-29T20:16:59.381Z,102217.84
2022-11-29T20:22:00.840Z,102225.75
2022-11-29T20:27:02.380Z,102217.09
2022-11-29T20:32:03.957Z,102238.72
2022-11-29T20:37:08.089Z,102234.41
2022-11-29T20:42:23.743Z,102238.13
2022-11-29T20:47:28.209Z,102243.69
2022-11-29T20:52:51.578Z,102252.59
2022-11-29T20:57:53.208Z,102259.75
2022-11-29T21:02:54.731Z,102262.63
2022-11-29T21:07:56.375Z,102266.44
2022-11-29T21:12:58.231Z,102263.84
2022-11-29T21:18:00.097Z,102273.97
2022-11-29T21:23:19.614Z,102272.47
2022-11-29T21:28:28.954Z,102270.00
2022-11-29T21:33:30.769Z,102262.69
2022-11-29T21:38:32.680Z,102274.34
2022-11-29T21:44:04.357Z,102268.03
2022-11-29T21:48:56.016Z,102273.34
2022-11-29T21:53:57.514Z,102254.28
2022-11-29T21:58:58.987Z,102257.09
2022-11-29T22:04:00.648Z,102258.31
2022-11-29T22:09:03.439Z,102255.50
2022-11-29T22:14:17.097Z,102265.88
2022-11-29T22:19:29.619Z,102265.97
2022-11-29T22:24:34.009Z,102273.03
2022-11-29T22:29:35.452Z,102253.50
2022-11-29T22:34:36.946Z,102260.88
2022-11-29T22:39:38.413Z,102262.22
2022-11-29T22:44:39.952Z,102261.84
2022-11-29T22:49:41.477Z,102257.63
2022-11-29T22:54:42.928Z,102264.75
2022-11-29T22:59:44.379Z,102269.34
2022-11-29T23:04:46.069Z,102279.22
2022-11-29T23:09:47.768Z,102288.97
2022-11-29T23:14:54.521Z,102283.75
2022-11-29T23:19:57.729Z,102291.16
2022-11-29T23:24:59.223Z,102303.75
2022-11-29T23:30:00.732Z,102317.34
2022-11-29T23:35:02.187Z,102307.34
2022-11-29T23:40:03.983Z,102310.59
2022-11-29T23:45:05.936Z,102314.00
2022-11-29T23:50:08.315Z,102315.22
2022-11-29T23:55:12.323Z,102311.59
